sensor_id;sensor_type;location;lat;lon;timestamp;P1;durP1;ratioP1;P2;durP2;ratioP2
76656;SDS011;65576;47.714;9.414;2023-07-13T00:01:29;3.65;;;2.38;;
76656;SDS011;65576;47.714;9.414;2023-07-13T00:03:55;7.80;;;2.10;;
76656;SDS011;65576;47.714;9.414;2023-07-13T00:06:21;1.90;;;1.40;;
76656;SDS011;65576;47.714;9.414;2023-07-13T00:08:46;7.90;;;2.63;;
76656;SDS011;65576;47.714;9.414;2023-07-13T00:11:12;3.28;;;2.00;;
76656;SDS011;65576;47.714;9.414;2023-07-13T00:13:37;3.83;;;1.95;;
76656;SDS011;65576;47.714;9.414;2023-07-13T00:16:04;4.00;;;2.08;;
76656;SDS011;65576;47.714;9.414;2023-07-13T00:18:29;3.38;;;2.22;;
76656;SDS011;65576;47.714;9.414;2023-07-13T00:20:55;6.32;;;2.13;;
76656;SDS011;65576;47.714;9.414;2023-07-13T00:23:29;7.35;;;2.47;;
76656;SDS011;65576;47.714;9.414;2023-07-13T00:25:55;11.25;;;2.50;;
76656;SDS011;65576;47.714;9.414;2023-07-13T00:28:21;6.85;;;2.17;;
76656;SDS011;65576;47.714;9.414;2023-07-13T00:30:47;2.80;;;2.17;;
76656;SDS011;65576;47.714;9.414;2023-07-13T00:33:12;5.65;;;2.58;;
76656;SDS011;65576;47.714;9.414;2023-07-13T00:35:37;9.00;;;1.85;;
76656;SDS011;65576;47.714;9.414;2023-07-13T00:38:04;3.10;;;2.08;;
76656;SDS011;65576;47.714;9.414;2023-07-13T00:40:29;3.25;;;1.83;;
76656;SDS011;65576;47.714;9.414;2023-07-13T00:42:57;3.58;;;2.10;;
76656;SDS011;65576;47.714;9.414;2023-07-13T00:47:48;4.15;;;2.53;;
76656;SDS011;65576;47.714;9.414;2023-07-13T00:50:15;5.03;;;2.60;;
76656;SDS011;65576;47.714;9.414;2023-07-13T00:52:42;5.40;;;2.00;;
76656;SDS011;65576;47.714;9.414;2023-07-13T00:55:09;5.40;;;1.80;;
76656;SDS011;65576;47.714;9.414;2023-07-13T00:57:36;4.88;;;2.10;;
76656;SDS011;65576;47.714;9.414;2023-07-13T01:00:02;5.28;;;1.85;;
76656;SDS011;65576;47.714;9.414;2023-07-13T01:02:38;3.10;;;1.98;;
76656;SDS011;65576;47.714;9.414;2023-07-13T01:05:14;2.67;;;2.17;;
76656;SDS011;65576;47.714;9.414;2023-07-13T01:07:42;4.18;;;1.90;;
76656;SDS011;65576;47.714;9.414;2023-07-13T01:10:09;5.72;;;2.40;;
76656;SDS011;65576;47.714;9.414;2023-07-13T01:12:35;4.22;;;1.83;;
76656;SDS011;65576;47.714;9.414;2023-07-13T01:15:01;3.92;;;2.17;;
76656;SDS011;65576;47.714;9.414;2023-07-13T01:17:28;5.65;;;2.50;;
76656;SDS011;65576;47.714;9.414;2023-07-13T01:19:54;2.97;;;1.95;;
76656;SDS011;65576;47.714;9.414;2023-07-13T01:22:19;8.00;;;2.55;;
76656;SDS011;65576;47.714;9.414;2023-07-13T01:24:50;4.63;;;2.50;;
76656;SDS011;65576;47.714;9.414;2023-07-13T01:27:17;4.18;;;1.80;;
76656;SDS011;65576;47.714;9.414;2023-07-13T01:29:45;3.70;;;1.90;;
76656;SDS011;65576;47.714;9.414;2023-07-13T01:32:13;3.35;;;2.38;;
76656;SDS011;65576;47.714;9.414;2023-07-13T01:34:40;4.40;;;2.25;;
76656;SDS011;65576;47.714;9.414;2023-07-13T01:37:09;3.83;;;2.50;;
76656;SDS011;65576;47.714;9.414;2023-07-13T01:39:35;3.35;;;1.92;;
76656;SDS011;65576;47.714;9.414;2023-07-13T01:42:01;2.70;;;2.22;;
76656;SDS011;65576;47.714;9.414;2023-07-13T01:44:27;2.72;;;2.00;;
76656;SDS011;65576;47.714;9.414;2023-07-13T01:46:52;4.18;;;1.70;;
76656;SDS011;65576;47.714;9.414;2023-07-13T01:49:17;3.38;;;2.42;;
76656;SDS011;65576;47.714;9.414;2023-07-13T01:51:43;5.55;;;2.00;;
76656;SDS011;65576;47.714;9.414;2023-07-13T01:54:08;4.20;;;2.35;;
76656;SDS011;65576;47.714;9.414;2023-07-13T01:56:34;4.53;;;2.40;;
76656;SDS011;65576;47.714;9.414;2023-07-13T01:58:59;5.75;;;2.00;;
76656;SDS011;65576;47.714;9.414;2023-07-13T02:01:24;3.50;;;2.17;;
76656;SDS011;65576;47.714;9.414;2023-07-13T02:03:49;2.38;;;1.95;;
76656;SDS011;65576;47.714;9.414;2023-07-13T02:06:15;4.82;;;2.20;;
76656;SDS011;65576;47.714;9.414;2023-07-13T02:08:41;8.55;;;2.88;;
76656;SDS011;65576;47.714;9.414;2023-07-13T02:11:07;4.15;;;2.75;;
76656;SDS011;65576;47.714;9.414;2023-07-13T02:13:32;3.70;;;2.40;;
76656;SDS011;65576;47.714;9.414;2023-07-13T02:15:58;7.10;;;2.03;;
76656;SDS011;65576;47.714;9.414;2023-07-13T02:18:23;3.30;;;2.28;;
76656;SDS011;65576;47.714;9.414;2023-07-13T02:20:48;4.43;;;2.30;;
76656;SDS011;65576;47.714;9.414;2023-07-13T02:23:14;2.83;;;1.95;;
76656;SDS011;65576;47.714;9.414;2023-07-13T02:25:39;3.80;;;2.35;;
76656;SDS011;65576;47.714;9.414;2023-07-13T02:28:04;5.28;;;2.45;;
76656;SDS011;65576;47.714;9.414;2023-07-13T02:30:30;3.55;;;2.30;;
76656;SDS011;65576;47.714;9.414;2023-07-13T02:32:56;2.58;;;1.90;;
76656;SDS011;65576;47.714;9.414;2023-07-13T02:35:21;4.78;;;2.30;;
76656;SDS011;65576;47.714;9.414;2023-07-13T02:37:47;4.57;;;2.22;;
76656;SDS011;65576;47.714;9.414;2023-07-13T02:40:12;9.05;;;2.03;;
76656;SDS011;65576;47.714;9.414;2023-07-13T02:42:38;10.35;;;2.42;;
76656;SDS011;65576;47.714;9.414;2023-07-13T02:45:03;4.18;;;2.15;;
76656;SDS011;65576;47.714;9.414;2023-07-13T02:47:29;3.30;;;2.28;;
76656;SDS011;65576;47.714;9.414;2023-07-13T02:49:54;5.72;;;2.47;;
76656;SDS011;65576;47.714;9.414;2023-07-13T02:52:20;2.63;;;1.90;;
76656;SDS011;65576;47.714;9.414;2023-07-13T02:54:45;5.93;;;2.65;;
76656;SDS011;65576;47.714;9.414;2023-07-13T02:57:10;6.13;;;2.53;;
76656;SDS011;65576;47.714;9.414;2023-07-13T02:59:36;2.72;;;2.00;;
76656;SDS011;65576;47.714;9.414;2023-07-13T03:02:02;2.80;;;1.90;;
76656;SDS011;65576;47.714;9.414;2023-07-13T03:04:27;4.78;;;2.00;;
76656;SDS011;65576;47.714;9.414;2023-07-13T03:06:53;3.42;;;1.85;;
76656;SDS011;65576;47.714;9.414;2023-07-13T03:09:23;4.38;;;2.08;;
76656;SDS011;65576;47.714;9.414;2023-07-13T03:11:49;4.80;;;2.10;;
76656;SDS011;65576;47.714;9.414;2023-07-13T03:14:14;3.83;;;2.30;;
76656;SDS011;65576;47.714;9.414;2023-07-13T03:16:39;2.83;;;2.00;;
76656;SDS011;65576;47.714;9.414;2023-07-13T03:19:05;4.97;;;2.63;;
76656;SDS011;65576;47.714;9.414;2023-07-13T03:21:30;9.45;;;2.25;;
76656;SDS011;65576;47.714;9.414;2023-07-13T03:23:56;3.22;;;2.15;;
76656;SDS011;65576;47.714;9.414;2023-07-13T03:26:21;4.05;;;2.42;;
76656;SDS011;65576;47.714;9.414;2023-07-13T03:28:47;9.05;;;2.65;;
76656;SDS011;65576;47.714;9.414;2023-07-13T03:31:16;3.88;;;2.10;;
76656;SDS011;65576;47.714;9.414;2023-07-13T03:33:43;3.42;;;2.60;;
76656;SDS011;65576;47.714;9.414;2023-07-13T03:36:12;6.57;;;2.75;;
76656;SDS011;65576;47.714;9.414;2023-07-13T03:38:41;5.10;;;2.38;;
76656;SDS011;65576;47.714;9.414;2023-07-13T03:41:06;5.75;;;2.30;;
76656;SDS011;65576;47.714;9.414;2023-07-13T03:43:31;3.13;;;2.30;;
76656;SDS011;65576;47.714;9.414;2023-07-13T03:45:56;3.35;;;2.00;;
76656;SDS011;65576;47.714;9.414;2023-07-13T03:48:22;13.13;;;2.60;;
76656;SDS011;65576;47.714;9.414;2023-07-13T03:50:47;4.40;;;2.70;;
76656;SDS011;65576;47.714;9.414;2023-07-13T03:53:14;4.60;;;1.90;;
76656;SDS011;65576;47.714;9.414;2023-07-13T03:55:40;7.10;;;2.10;;
76656;SDS011;65576;47.714;9.414;2023-07-13T04:00:51;8.85;;;2.22;;
76656;SDS011;65576;47.714;9.414;2023-07-13T04:03:17;5.50;;;2.25;;
76656;SDS011;65576;47.714;9.414;2023-07-13T04:05:42;4.50;;;2.20;;
76656;SDS011;65576;47.714;9.414;2023-07-13T04:08:08;2.70;;;2.15;;
76656;SDS011;65576;47.714;9.414;2023-07-13T04:10:34;4.60;;;2.72;;
76656;SDS011;65576;47.714;9.414;2023-07-13T04:13:01;4.75;;;2.25;;
76656;SDS011;65576;47.714;9.414;2023-07-13T04:15:29;6.95;;;2.33;;
76656;SDS011;65576;47.714;9.414;2023-07-13T04:17:56;3.45;;;2.40;;
76656;SDS011;65576;47.714;9.414;2023-07-13T04:20:22;3.63;;;2.45;;
76656;SDS011;65576;47.714;9.414;2023-07-13T04:22:49;3.90;;;2.20;;
76656;SDS011;65576;47.714;9.414;2023-07-13T04:25:14;9.50;;;2.47;;
76656;SDS011;65576;47.714;9.414;2023-07-13T04:27:40;4.78;;;2.35;;
76656;SDS011;65576;47.714;9.414;2023-07-13T04:30:05;3.30;;;2.50;;
76656;SDS011;65576;47.714;9.414;2023-07-13T04:32:31;10.02;;;2.72;;
76656;SDS011;65576;47.714;9.414;2023-07-13T04:34:57;3.33;;;2.17;;
76656;SDS011;65576;47.714;9.414;2023-07-13T04:37:24;3.10;;;2.28;;
76656;SDS011;65576;47.714;9.414;2023-07-13T04:39:50;2.33;;;1.83;;
76656;SDS011;65576;47.714;9.414;2023-07-13T04:42:15;6.75;;;2.35;;
76656;SDS011;65576;47.714;9.414;2023-07-13T04:44:41;6.55;;;2.67;;
76656;SDS011;65576;47.714;9.414;2023-07-13T04:47:06;3.88;;;2.63;;
76656;SDS011;65576;47.714;9.414;2023-07-13T04:49:32;3.53;;;2.20;;
76656;SDS011;65576;47.714;9.414;2023-07-13T04:51:57;3.28;;;2.28;;
76656;SDS011;65576;47.714;9.414;2023-07-13T04:54:22;6.20;;;2.80;;
76656;SDS011;65576;47.714;9.414;2023-07-13T04:56:48;4.93;;;2.67;;
76656;SDS011;65576;47.714;9.414;2023-07-13T04:59:13;3.75;;;2.75;;
76656;SDS011;65576;47.714;9.414;2023-07-13T05:01:38;6.25;;;2.63;;
76656;SDS011;65576;47.714;9.414;2023-07-13T05:04:05;4.13;;;2.88;;
76656;SDS011;65576;47.714;9.414;2023-07-13T05:06:30;3.03;;;2.42;;
76656;SDS011;65576;47.714;9.414;2023-07-13T05:08:56;4.78;;;2.42;;
76656;SDS011;65576;47.714;9.414;2023-07-13T05:11:21;5.65;;;2.75;;
76656;SDS011;65576;47.714;9.414;2023-07-13T05:13:47;5.53;;;2.63;;
76656;SDS011;65576;47.714;9.414;2023-07-13T05:16:12;7.50;;;2.53;;
76656;SDS011;65576;47.714;9.414;2023-07-13T05:18:37;7.03;;;3.08;;
76656;SDS011;65576;47.714;9.414;2023-07-13T05:21:04;4.22;;;2.55;;
76656;SDS011;65576;47.714;9.414;2023-07-13T05:23:31;4.32;;;2.70;;
76656;SDS011;65576;47.714;9.414;2023-07-13T05:25:57;3.85;;;2.50;;
76656;SDS011;65576;47.714;9.414;2023-07-13T05:28:22;9.20;;;3.03;;
76656;SDS011;65576;47.714;9.414;2023-07-13T05:30:48;3.45;;;2.63;;
76656;SDS011;65576;47.714;9.414;2023-07-13T05:33:14;7.72;;;2.88;;
76656;SDS011;65576;47.714;9.414;2023-07-13T05:35:39;6.45;;;3.30;;
76656;SDS011;65576;47.714;9.414;2023-07-13T05:38:05;4.60;;;3.25;;
76656;SDS011;65576;47.714;9.414;2023-07-13T05:40:30;8.80;;;3.00;;
76656;SDS011;65576;47.714;9.414;2023-07-13T05:42:55;3.28;;;2.40;;
76656;SDS011;65576;47.714;9.414;2023-07-13T05:45:21;4.28;;;3.38;;
76656;SDS011;65576;47.714;9.414;2023-07-13T05:47:46;5.30;;;2.83;;
76656;SDS011;65576;47.714;9.414;2023-07-13T05:50:11;4.80;;;3.30;;
76656;SDS011;65576;47.714;9.414;2023-07-13T05:52:37;6.18;;;3.13;;
76656;SDS011;65576;47.714;9.414;2023-07-13T05:55:03;4.93;;;3.00;;
76656;SDS011;65576;47.714;9.414;2023-07-13T05:57:29;8.65;;;2.92;;
76656;SDS011;65576;47.714;9.414;2023-07-13T05:59:55;4.30;;;3.35;;
76656;SDS011;65576;47.714;9.414;2023-07-13T06:02:20;4.40;;;2.95;;
76656;SDS011;65576;47.714;9.414;2023-07-13T06:04:45;7.82;;;3.33;;
76656;SDS011;65576;47.714;9.414;2023-07-13T06:07:11;9.88;;;3.03;;
76656;SDS011;65576;47.714;9.414;2023-07-13T06:09:36;7.60;;;3.08;;
76656;SDS011;65576;47.714;9.414;2023-07-13T06:12:01;4.20;;;3.08;;
76656;SDS011;65576;47.714;9.414;2023-07-13T06:14:27;4.28;;;3.15;;
76656;SDS011;65576;47.714;9.414;2023-07-13T06:16:52;5.70;;;3.28;;
76656;SDS011;65576;47.714;9.414;2023-07-13T06:19:17;4.40;;;2.80;;
76656;SDS011;65576;47.714;9.414;2023-07-13T06:21:43;8.25;;;3.40;;
76656;SDS011;65576;47.714;9.414;2023-07-13T06:24:08;5.57;;;3.47;;
76656;SDS011;65576;47.714;9.414;2023-07-13T06:26:33;8.07;;;3.38;;
76656;SDS011;65576;47.714;9.414;2023-07-13T06:28:59;5.63;;;3.20;;
76656;SDS011;65576;47.714;9.414;2023-07-13T06:31:24;5.45;;;3.53;;
76656;SDS011;65576;47.714;9.414;2023-07-13T06:33:49;10.35;;;3.25;;
76656;SDS011;65576;47.714;9.414;2023-07-13T06:36:14;6.65;;;3.78;;
76656;SDS011;65576;47.714;9.414;2023-07-13T06:38:40;4.88;;;3.05;;
76656;SDS011;65576;47.714;9.414;2023-07-13T06:41:06;3.80;;;2.85;;
76656;SDS011;65576;47.714;9.414;2023-07-13T06:43:32;6.80;;;3.67;;
76656;SDS011;65576;47.714;9.414;2023-07-13T06:45:57;4.45;;;3.25;;
76656;SDS011;65576;47.714;9.414;2023-07-13T06:48:23;6.15;;;2.97;;
76656;SDS011;65576;47.714;9.414;2023-07-13T06:50:49;4.47;;;3.08;;
76656;SDS011;65576;47.714;9.414;2023-07-13T06:53:15;5.20;;;3.30;;
76656;SDS011;65576;47.714;9.414;2023-07-13T06:55:40;5.80;;;3.50;;
76656;SDS011;65576;47.714;9.414;2023-07-13T06:58:08;7.43;;;3.20;;
76656;SDS011;65576;47.714;9.414;2023-07-13T07:00:34;4.13;;;2.70;;
76656;SDS011;65576;47.714;9.414;2023-07-13T07:02:59;7.97;;;2.80;;
76656;SDS011;65576;47.714;9.414;2023-07-13T07:05:24;4.32;;;1.80;;
76656;SDS011;65576;47.714;9.414;2023-07-13T07:07:50;3.35;;;2.42;;
76656;SDS011;65576;47.714;9.414;2023-07-13T07:10:16;4.18;;;2.10;;
76656;SDS011;65576;47.714;9.414;2023-07-13T07:12:41;2.70;;;1.70;;
76656;SDS011;65576;47.714;9.414;2023-07-13T07:15:07;3.38;;;1.55;;
76656;SDS011;65576;47.714;9.414;2023-07-13T07:17:32;5.28;;;1.85;;
76656;SDS011;65576;47.714;9.414;2023-07-13T07:19:58;3.13;;;1.85;;
76656;SDS011;65576;47.714;9.414;2023-07-13T07:22:23;7.32;;;2.15;;
76656;SDS011;65576;47.714;9.414;2023-07-13T07:24:52;1.98;;;1.63;;
76656;SDS011;65576;47.714;9.414;2023-07-13T07:27:17;4.57;;;1.50;;
76656;SDS011;65576;47.714;9.414;2023-07-13T07:29:42;5.82;;;1.90;;
76656;SDS011;65576;47.714;9.414;2023-07-13T07:32:08;2.25;;;1.73;;
76656;SDS011;65576;47.714;9.414;2023-07-13T07:34:33;1.83;;;1.52;;
76656;SDS011;65576;47.714;9.414;2023-07-13T07:36:59;2.30;;;1.67;;
76656;SDS011;65576;47.714;9.414;2023-07-13T07:39:28;2.87;;;1.90;;
76656;SDS011;65576;47.714;9.414;2023-07-13T07:41:54;2.53;;;1.33;;
76656;SDS011;65576;47.714;9.414;2023-07-13T07:44:19;8.77;;;1.85;;
76656;SDS011;65576;47.714;9.414;2023-07-13T07:46:44;2.38;;;1.65;;
76656;SDS011;65576;47.714;9.414;2023-07-13T07:49:10;2.90;;;1.70;;
76656;SDS011;65576;47.714;9.414;2023-07-13T07:51:35;1.50;;;1.40;;
76656;SDS011;65576;47.714;9.414;2023-07-13T07:54:01;3.20;;;1.70;;
76656;SDS011;65576;47.714;9.414;2023-07-13T07:56:26;9.18;;;1.65;;
76656;SDS011;65576;47.714;9.414;2023-07-13T07:58:51;4.40;;;1.70;;
76656;SDS011;65576;47.714;9.414;2023-07-13T08:01:17;1.58;;;1.15;;
76656;SDS011;65576;47.714;9.414;2023-07-13T08:03:42;7.25;;;1.60;;
76656;SDS011;65576;47.714;9.414;2023-07-13T08:06:07;2.35;;;1.25;;
76656;SDS011;65576;47.714;9.414;2023-07-13T08:08:34;1.95;;;1.33;;
76656;SDS011;65576;47.714;9.414;2023-07-13T08:11:01;1.92;;;1.27;;
76656;SDS011;65576;47.714;9.414;2023-07-13T08:13:28;3.30;;;1.70;;
76656;SDS011;65576;47.714;9.414;2023-07-13T08:15:53;1.42;;;1.30;;
76656;SDS011;65576;47.714;9.414;2023-07-13T08:18:18;1.13;;;1.02;;
76656;SDS011;65576;47.714;9.414;2023-07-13T08:20:44;4.78;;;1.58;;
76656;SDS011;65576;47.714;9.414;2023-07-13T08:23:10;3.50;;;1.63;;
76656;SDS011;65576;47.714;9.414;2023-07-13T08:25:36;5.93;;;1.50;;
76656;SDS011;65576;47.714;9.414;2023-07-13T08:28:02;1.65;;;1.13;;
76656;SDS011;65576;47.714;9.414;2023-07-13T08:30:28;1.20;;;1.05;;
76656;SDS011;65576;47.714;9.414;2023-07-13T08:32:54;2.20;;;1.33;;
76656;SDS011;65576;47.714;9.414;2023-07-13T08:35:19;3.17;;;1.60;;
76656;SDS011;65576;47.714;9.414;2023-07-13T08:37:44;2.90;;;1.30;;
76656;SDS011;65576;47.714;9.414;2023-07-13T08:40:10;5.30;;;1.40;;
76656;SDS011;65576;47.714;9.414;2023-07-13T08:42:38;4.53;;;1.80;;
76656;SDS011;65576;47.714;9.414;2023-07-13T08:48:13;2.85;;;1.42;;
76656;SDS011;65576;47.714;9.414;2023-07-13T08:50:49;1.30;;;1.20;;
76656;SDS011;65576;47.714;9.414;2023-07-13T08:53:18;5.65;;;1.17;;
76656;SDS011;65576;47.714;9.414;2023-07-13T08:55:44;3.88;;;0.90;;
76656;SDS011;65576;47.714;9.414;2023-07-13T08:58:14;2.00;;;1.27;;
76656;SDS011;65576;47.714;9.414;2023-07-13T09:00:56;11.13;;;1.92;;
76656;SDS011;65576;47.714;9.414;2023-07-13T09:03:27;2.88;;;1.10;;
76656;SDS011;65576;47.714;9.414;2023-07-13T09:05:57;1.05;;;0.90;;
76656;SDS011;65576;47.714;9.414;2023-07-13T09:08:29;1.98;;;1.10;;
76656;SDS011;65576;47.714;9.414;2023-07-13T09:11:28;1.25;;;1.00;;
76656;SDS011;65576;47.714;9.414;2023-07-13T09:17:00;1.75;;;1.10;;
76656;SDS011;65576;47.714;9.414;2023-07-13T09:19:30;1.52;;;0.93;;
76656;SDS011;65576;47.714;9.414;2023-07-13T09:21:58;0.80;;;0.80;;
76656;SDS011;65576;47.714;9.414;2023-07-13T09:27:10;8.43;;;6.13;;
76656;SDS011;65576;47.714;9.414;2023-07-13T09:29:42;1.73;;;1.25;;
76656;SDS011;65576;47.714;9.414;2023-07-13T09:32:12;1.10;;;0.90;;
76656;SDS011;65576;47.714;9.414;2023-07-13T09:34:39;1.77;;;0.98;;
76656;SDS011;65576;47.714;9.414;2023-07-13T09:37:05;4.47;;;1.33;;
76656;SDS011;65576;47.714;9.414;2023-07-13T09:39:35;2.30;;;1.10;;
76656;SDS011;65576;47.714;9.414;2023-07-13T09:47:16;4.90;;;1.17;;
76656;SDS011;65576;47.714;9.414;2023-07-13T09:50:02;1.67;;;1.10;;
76656;SDS011;65576;47.714;9.414;2023-07-13T09:57:51;2.30;;;0.98;;
76656;SDS011;65576;47.714;9.414;2023-07-13T10:00:28;0.88;;;0.85;;
76656;SDS011;65576;47.714;9.414;2023-07-13T10:03:01;1.23;;;1.13;;
76656;SDS011;65576;47.714;9.414;2023-07-13T10:05:37;2.55;;;1.05;;
76656;SDS011;65576;47.714;9.414;2023-07-13T10:08:04;2.22;;;0.70;;
76656;SDS011;65576;47.714;9.414;2023-07-13T10:10:32;2.70;;;1.10;;
76656;SDS011;65576;47.714;9.414;2023-07-13T10:12:57;1.52;;;1.00;;
76656;SDS011;65576;47.714;9.414;2023-07-13T10:15:23;4.03;;;1.05;;
76656;SDS011;65576;47.714;9.414;2023-07-13T10:17:51;8.32;;;0.98;;
76656;SDS011;65576;47.714;9.414;2023-07-13T10:20:17;1.30;;;0.93;;
76656;SDS011;65576;47.714;9.414;2023-07-13T10:22:50;1.55;;;1.20;;
76656;SDS011;65576;47.714;9.414;2023-07-13T10:25:20;1.73;;;1.15;;
76656;SDS011;65576;47.714;9.414;2023-07-13T10:27:47;2.63;;;1.20;;
76656;SDS011;65576;47.714;9.414;2023-07-13T10:30:19;3.88;;;0.93;;
76656;SDS011;65576;47.714;9.414;2023-07-13T10:32:48;3.70;;;1.23;;
76656;SDS011;65576;47.714;9.414;2023-07-13T10:35:15;4.82;;;1.25;;
76656;SDS011;65576;47.714;9.414;2023-07-13T10:37:50;1.08;;;1.00;;
76656;SDS011;65576;47.714;9.414;2023-07-13T10:40:19;1.65;;;1.10;;
76656;SDS011;65576;47.714;9.414;2023-07-13T10:42:49;2.20;;;1.20;;
76656;SDS011;65576;47.714;9.414;2023-07-13T10:45:19;2.85;;;1.27;;
76656;SDS011;65576;47.714;9.414;2023-07-13T10:47:46;1.23;;;0.85;;
76656;SDS011;65576;47.714;9.414;2023-07-13T10:50:15;4.47;;;1.15;;
76656;SDS011;65576;47.714;9.414;2023-07-13T10:52:50;2.47;;;1.33;;
76656;SDS011;65576;47.714;9.414;2023-07-13T10:58:13;1.25;;;0.95;;
76656;SDS011;65576;47.714;9.414;2023-07-13T11:01:14;3.40;;;1.08;;
76656;SDS011;65576;47.714;9.414;2023-07-13T11:03:36;5.13;;;1.40;;
76656;SDS011;65576;47.714;9.414;2023-07-13T11:11:45;3.88;;;1.30;;
76656;SDS011;65576;47.714;9.414;2023-07-13T11:14:04;2.22;;;1.20;;
76656;SDS011;65576;47.714;9.414;2023-07-13T11:16:35;3.05;;;1.42;;
76656;SDS011;65576;47.714;9.414;2023-07-13T11:24:57;2.58;;;1.10;;
76656;SDS011;65576;47.714;9.414;2023-07-13T11:32:50;6.03;;;1.40;;
76656;SDS011;65576;47.714;9.414;2023-07-13T11:35:22;8.45;;;1.23;;
76656;SDS011;65576;47.714;9.414;2023-07-13T11:37:51;1.75;;;1.23;;
76656;SDS011;65576;47.714;9.414;2023-07-13T11:40:17;1.30;;;1.20;;
76656;SDS011;65576;47.714;9.414;2023-07-13T11:42:42;4.80;;;1.13;;
76656;SDS011;65576;47.714;9.414;2023-07-13T11:45:21;1.25;;;0.90;;
76656;SDS011;65576;47.714;9.414;2023-07-13T11:47:48;1.42;;;1.02;;
76656;SDS011;65576;47.714;9.414;2023-07-13T11:50:18;2.13;;;1.00;;
76656;SDS011;65576;47.714;9.414;2023-07-13T11:52:45;4.32;;;1.10;;
76656;SDS011;65576;47.714;9.414;2023-07-13T11:55:14;1.92;;;1.00;;
76656;SDS011;65576;47.714;9.414;2023-07-13T11:57:49;2.65;;;1.00;;
76656;SDS011;65576;47.714;9.414;2023-07-13T12:00:17;2.80;;;1.30;;
76656;SDS011;65576;47.714;9.414;2023-07-13T12:02:47;1.65;;;1.00;;
76656;SDS011;65576;47.714;9.414;2023-07-13T12:05:14;3.08;;;1.40;;
76656;SDS011;65576;47.714;9.414;2023-07-13T12:07:43;3.40;;;1.30;;
76656;SDS011;65576;47.714;9.414;2023-07-13T12:12:37;1.70;;;1.20;;
76656;SDS011;65576;47.714;9.414;2023-07-13T12:15:08;3.00;;;1.33;;
76656;SDS011;65576;47.714;9.414;2023-07-13T12:17:36;1.83;;;0.98;;
76656;SDS011;65576;47.714;9.414;2023-07-13T12:20:03;1.00;;;0.95;;
76656;SDS011;65576;47.714;9.414;2023-07-13T12:22:51;1.98;;;1.30;;
76656;SDS011;65576;47.714;9.414;2023-07-13T12:25:17;2.58;;;1.30;;
76656;SDS011;65576;47.714;9.414;2023-07-13T12:27:46;2.13;;;0.90;;
76656;SDS011;65576;47.714;9.414;2023-07-13T12:30:29;1.52;;;1.30;;
76656;SDS011;65576;47.714;9.414;2023-07-13T12:33:06;2.53;;;1.55;;
76656;SDS011;65576;47.714;9.414;2023-07-13T12:35:40;1.52;;;1.10;;
76656;SDS011;65576;47.714;9.414;2023-07-13T12:38:09;1.73;;;0.90;;
76656;SDS011;65576;47.714;9.414;2023-07-13T12:40:35;2.80;;;1.40;;
76656;SDS011;65576;47.714;9.414;2023-07-13T12:43:02;1.13;;;1.02;;
76656;SDS011;65576;47.714;9.414;2023-07-13T12:45:29;1.95;;;1.15;;
76656;SDS011;65576;47.714;9.414;2023-07-13T12:47:56;3.08;;;1.40;;
76656;SDS011;65576;47.714;9.414;2023-07-13T12:53:02;6.32;;;1.38;;
76656;SDS011;65576;47.714;9.414;2023-07-13T12:55:31;2.03;;;1.35;;
76656;SDS011;65576;47.714;9.414;2023-07-13T12:58:06;1.98;;;1.30;;
76656;SDS011;65576;47.714;9.414;2023-07-13T13:00:38;1.30;;;1.20;;
76656;SDS011;65576;47.714;9.414;2023-07-13T13:03:07;1.98;;;1.10;;
76656;SDS011;65576;47.714;9.414;2023-07-13T13:05:43;2.83;;;1.20;;
76656;SDS011;65576;47.714;9.414;2023-07-13T13:08:13;1.23;;;0.93;;
76656;SDS011;65576;47.714;9.414;2023-07-13T13:10:38;1.55;;;1.10;;
76656;SDS011;65576;47.714;9.414;2023-07-13T13:13:04;1.25;;;1.00;;
76656;SDS011;65576;47.714;9.414;2023-07-13T13:15:29;2.83;;;1.20;;
76656;SDS011;65576;47.714;9.414;2023-07-13T13:17:55;1.15;;;1.05;;
76656;SDS011;65576;47.714;9.414;2023-07-13T13:20:21;1.02;;;0.93;;
76656;SDS011;65576;47.714;9.414;2023-07-13T13:22:48;1.85;;;1.15;;
76656;SDS011;65576;47.714;9.414;2023-07-13T13:25:13;1.85;;;1.20;;
76656;SDS011;65576;47.714;9.414;2023-07-13T13:27:43;2.97;;;1.25;;
76656;SDS011;65576;47.714;9.414;2023-07-13T13:32:39;0.98;;;0.90;;
76656;SDS011;65576;47.714;9.414;2023-07-13T13:35:05;1.80;;;1.25;;
76656;SDS011;65576;47.714;9.414;2023-07-13T13:37:37;1.73;;;1.00;;
76656;SDS011;65576;47.714;9.414;2023-07-13T13:40:02;2.03;;;1.10;;
76656;SDS011;65576;47.714;9.414;2023-07-13T13:42:29;1.60;;;1.10;;
76656;SDS011;65576;47.714;9.414;2023-07-13T13:44:54;1.60;;;1.20;;
76656;SDS011;65576;47.714;9.414;2023-07-13T13:47:29;1.13;;;1.00;;
76656;SDS011;65576;47.714;9.414;2023-07-13T13:49:56;2.10;;;1.15;;
76656;SDS011;65576;47.714;9.414;2023-07-13T13:52:21;1.38;;;1.00;;
76656;SDS011;65576;47.714;9.414;2023-07-13T13:54:46;1.08;;;0.90;;
76656;SDS011;65576;47.714;9.414;2023-07-13T13:57:12;1.33;;;1.10;;
76656;SDS011;65576;47.714;9.414;2023-07-13T13:59:37;1.30;;;1.20;;
76656;SDS011;65576;47.714;9.414;2023-07-13T14:02:08;2.97;;;1.23;;
76656;SDS011;65576;47.714;9.414;2023-07-13T14:04:44;2.00;;;1.17;;
76656;SDS011;65576;47.714;9.414;2023-07-13T14:07:10;1.83;;;1.27;;
76656;SDS011;65576;47.714;9.414;2023-07-13T14:09:35;1.48;;;1.00;;
76656;SDS011;65576;47.714;9.414;2023-07-13T14:12:00;2.28;;;1.30;;
76656;SDS011;65576;47.714;9.414;2023-07-13T14:14:26;2.33;;;1.00;;
76656;SDS011;65576;47.714;9.414;2023-07-13T14:16:52;3.47;;;1.00;;
76656;SDS011;65576;47.714;9.414;2023-07-13T14:19:19;1.63;;;1.02;;
76656;SDS011;65576;47.714;9.414;2023-07-13T14:21:45;2.35;;;1.00;;
76656;SDS011;65576;47.714;9.414;2023-07-13T14:24:12;1.08;;;1.00;;
76656;SDS011;65576;47.714;9.414;2023-07-13T14:26:38;1.73;;;0.90;;
76656;SDS011;65576;47.714;9.414;2023-07-13T14:29:08;2.15;;;1.30;;
76656;SDS011;65576;47.714;9.414;2023-07-13T14:31:37;1.77;;;1.30;;
76656;SDS011;65576;47.714;9.414;2023-07-13T14:34:02;2.25;;;1.30;;
76656;SDS011;65576;47.714;9.414;2023-07-13T14:38:54;2.33;;;1.45;;
76656;SDS011;65576;47.714;9.414;2023-07-13T14:41:20;2.88;;;1.20;;
76656;SDS011;65576;47.714;9.414;2023-07-13T14:43:46;0.95;;;0.93;;
76656;SDS011;65576;47.714;9.414;2023-07-13T14:46:33;4.60;;;1.23;;
76656;SDS011;65576;47.714;9.414;2023-07-13T14:49:04;1.20;;;1.05;;
76656;SDS011;65576;47.714;9.414;2023-07-13T14:51:31;1.55;;;1.00;;
76656;SDS011;65576;47.714;9.414;2023-07-13T14:54:01;2.00;;;1.40;;
76656;SDS011;65576;47.714;9.414;2023-07-13T14:56:28;1.52;;;1.25;;
76656;SDS011;65576;47.714;9.414;2023-07-13T14:58:53;1.60;;;1.27;;
76656;SDS011;65576;47.714;9.414;2023-07-13T15:01:18;1.30;;;1.02;;
76656;SDS011;65576;47.714;9.414;2023-07-13T15:03:45;3.67;;;1.27;;
76656;SDS011;65576;47.714;9.414;2023-07-13T15:06:12;1.95;;;1.00;;
76656;SDS011;65576;47.714;9.414;2023-07-13T15:08:38;1.33;;;0.98;;
76656;SDS011;65576;47.714;9.414;2023-07-13T15:11:05;3.95;;;1.42;;
76656;SDS011;65576;47.714;9.414;2023-07-13T15:13:31;3.90;;;1.13;;
76656;SDS011;65576;47.714;9.414;2023-07-13T15:15:57;1.65;;;1.15;;
76656;SDS011;65576;47.714;9.414;2023-07-13T15:18:22;3.17;;;1.20;;
76656;SDS011;65576;47.714;9.414;2023-07-13T15:20:49;1.20;;;1.00;;
76656;SDS011;65576;47.714;9.414;2023-07-13T15:23:16;2.00;;;1.13;;
76656;SDS011;65576;47.714;9.414;2023-07-13T15:25:42;2.42;;;1.50;;
76656;SDS011;65576;47.714;9.414;2023-07-13T15:28:09;1.58;;;1.30;;
76656;SDS011;65576;47.714;9.414;2023-07-13T15:30:42;1.23;;;0.90;;
76656;SDS011;65576;47.714;9.414;2023-07-13T15:33:21;1.52;;;1.10;;
76656;SDS011;65576;47.714;9.414;2023-07-13T15:35:49;1.38;;;1.02;;
76656;SDS011;65576;47.714;9.414;2023-07-13T15:38:29;1.50;;;0.85;;
76656;SDS011;65576;47.714;9.414;2023-07-13T15:40:55;8.10;;;1.05;;
76656;SDS011;65576;47.714;9.414;2023-07-13T15:43:21;1.98;;;0.95;;